Time;durP1;ratioP1;P1;durP2;ratioP2;P2;SDS_P1;SDS_P2;PMS_P1;PMS_P2;Temp;Humidity;BMP_temperature;BMP_pressure;BME280_temperature;BME280_humidity;BME280_pressure;Samples;Min_cycle;Max_cycle;Signal;HPM_P1;HPM_P2
2022/09/09 00:01:27;;;;;;;12.18;7.15;;;;;;;16.92;nan;-24288.47;5042636;28;20183;-74
2022/09/09 00:04:02;;;;;;;11.35;7.35;;;;;;;16.46;nan;-24275.75;5037127;28;20191;-74
2022/09/09 00:06:35;;;;;;;11.55;7.53;;;;;;;16.91;nan;-24288.19;5041282;28;20206;-74
2022/09/09 00:09:16;;;;;;;12.52;7.47;;;;;;;16.90;nan;-24287.91;5043111;28;20626;-75
2022/09/09 00:11:50;;;;;;;13.35;7.95;;;;;;;16.88;nan;-24287.50;5043383;28;20213;-74
2022/09/09 00:14:32;;;;;;;11.93;7.40;;;;;;;16.56;nan;-24278.69;5026084;28;20181;-74
2022/09/09 00:17:03;;;;;;;12.35;7.60;;;;;;;16.49;nan;-24276.72;5045297;28;20186;-77
2022/09/09 00:19:46;;;;;;;15.00;8.98;;;;;;;16.49;nan;-24276.72;5040388;28;20182;-75
2022/09/09 00:22:20;;;;;;;12.43;6.75;;;;;;;16.51;nan;-24277.28;5033258;28;20218;-75
2022/09/09 00:24:50;;;;;;;13.32;7.68;;;;;;;16.67;nan;-24281.63;5046087;28;20284;-75
2022/09/09 00:27:45;;;;;;;11.82;7.45;;;;;;;16.70;nan;-24282.59;5037820;28;20176;-75
2022/09/09 00:30:19;;;;;;;12.68;7.75;;;;;;;16.67;nan;-24281.78;5048700;28;20191;-75
2022/09/09 00:32:45;;;;;;;12.25;7.32;;;;;;;16.41;nan;-24274.34;5038414;28;20284;-75
2022/09/09 00:35:15;;;;;;;12.15;7.75;;;;;;;16.76;nan;-24284.13;5034386;28;20380;-75
2022/09/09 00:37:42;;;;;;;11.10;7.28;;;;;;;16.68;nan;-24282.03;5046444;28;20183;-75
2022/09/09 00:40:31;;;;;;;11.38;7.47;;;;;;;16.72;nan;-24283.16;5040505;28;20191;-75
2022/09/09 00:43:08;;;;;;;13.20;7.97;;;;;;;16.50;nan;-24277.00;5034153;28;20215;-75
2022/09/09 00:45:55;;;;;;;12.15;7.57;;;;;;;16.58;nan;-24279.25;5043577;28;20229;-75
2022/09/09 00:48:27;;;;;;;12.80;8.00;;;;;;;16.44;nan;-24275.34;5015731;28;20690;-75
2022/09/09 00:51:14;;;;;;;14.50;7.57;;;;;;;16.41;nan;-24274.34;5039735;28;20179;-75
2022/09/09 00:53:58;;;;;;;16.02;7.57;;;;;;;16.19;nan;-24268.34;5045291;28;20661;-75
2022/09/09 00:56:42;;;;;;;12.65;7.82;;;;;;;16.17;nan;-24267.94;5048304;28;20193;-75
2022/09/09 00:59:10;;;;;;;13.80;8.02;;;;;;;16.41;nan;-24274.50;5045715;28;20185;-75
2022/09/09 01:01:36;;;;;;;13.00;7.88;;;;;;;15.90;nan;-24260.50;5042221;28;20327;-74
2022/09/09 01:04:15;;;;;;;11.68;7.82;;;;;;;16.25;nan;-24270.03;5039348;28;20278;-75
2022/09/09 01:06:43;;;;;;;11.50;7.57;;;;;;;16.39;nan;-24273.94;5048064;28;20210;-75
2022/09/09 01:09:15;;;;;;;14.48;8.38;;;;;;;16.43;nan;-24275.06;5042566;28;20648;-75
2022/09/09 01:11:52;;;;;;;11.30;7.22;;;;;;;16.13;nan;-24266.81;5040045;28;20206;-75
2022/09/09 01:14:40;;;;;;;13.43;8.15;;;;;;;15.95;nan;-24261.63;5044847;28;20764;-75
2022/09/09 01:17:22;;;;;;;13.75;8.18;;;;;;;16.20;nan;-24268.63;5038278;28;20198;-75
2022/09/09 01:20:10;;;;;;;13.98;8.00;;;;;;;16.03;nan;-24264.00;5043353;28;20313;-75
2022/09/09 01:22:40;;;;;;;10.23;7.13;;;;;;;16.19;nan;-24268.34;5041041;28;20183;-75
2022/09/09 01:25:22;;;;;;;14.80;7.80;;;;;;;16.14;nan;-24267.09;5037372;28;20298;-75
2022/09/09 01:27:51;;;;;;;11.27;7.03;;;;;;;15.71;nan;-24255.19;5041899;28;20197;-75
2022/09/09 01:30:18;;;;;;;16.77;8.13;;;;;;;15.76;nan;-24256.47;5045565;28;20244;-75
2022/09/09 01:32:46;;;;;;;11.77;7.35;;;;;;;15.70;nan;-24254.78;5040867;28;20600;-75
2022/09/09 01:35:56;;;;;;;14.75;7.68;;;;;;;16.08;nan;-24265.41;5038346;28;20237;-75
2022/09/09 01:38:24;;;;;;;11.23;6.90;;;;;;;15.99;nan;-24262.75;5028858;28;20190;-75
2022/09/09 01:40:52;;;;;;;17.40;8.40;;;;;;;15.95;nan;-24261.78;5044054;28;20544;-75
2022/09/09 01:43:19;;;;;;;19.50;7.28;;;;;;;16.10;nan;-24265.97;5042569;28;20243;-75
2022/09/09 01:45:47;;;;;;;11.45;7.40;;;;;;;16.02;nan;-24263.59;5039876;28;20203;-75
2022/09/09 01:48:12;;;;;;;13.50;7.30;;;;;;;15.97;nan;-24262.19;5040501;28;20630;-75
2022/09/09 01:50:38;;;;;;;12.55;7.57;;;;;;;15.83;nan;-24258.41;5032117;28;20183;-75
2022/09/09 01:53:03;;;;;;;11.35;6.82;;;;;;;15.67;nan;-24254.06;5031164;28;20184;-75
2022/09/09 01:55:32;;;;;;;11.15;6.93;;;;;;;16.10;nan;-24265.81;5034351;28;20715;-75
2022/09/09 01:58:31;;;;;;;15.60;7.80;;;;;;;16.19;nan;-24268.34;5044412;28;20183;-75
2022/09/09 02:01:22;;;;;;;11.90;6.75;;;;;;;16.21;nan;-24269.03;5040638;28;20214;-75
2022/09/09 02:03:53;;;;;;;12.93;7.60;;;;;;;16.17;nan;-24267.78;5041203;28;20202;-75
2022/09/09 02:06:38;;;;;;;11.65;7.00;;;;;;;16.00;nan;-24263.03;5042743;28;20268;-75
2022/09/09 02:09:11;;;;;;;12.77;7.03;;;;;;;15.67;nan;-24254.06;5040117;28;20658;-75
2022/09/09 02:11:37;;;;;;;11.65;6.60;;;;;;;15.58;nan;-24251.41;5039741;28;20563;-75
2022/09/09 02:14:10;;;;;;;13.55;6.22;;;;;;;15.82;nan;-24258.13;5032077;28;20334;-75
2022/09/09 02:16:40;;;;;;;11.98;6.93;;;;;;;15.98;nan;-24262.59;5031669;28;20233;-75
2022/09/09 02:19:23;;;;;;;11.98;5.97;;;;;;;15.75;nan;-24256.31;5045533;28;20199;-75
2022/09/09 02:21:50;;;;;;;12.73;6.88;;;;;;;16.04;nan;-24264.16;5036449;28;20191;-75
2022/09/09 02:24:15;;;;;;;9.20;6.25;;;;;;;16.00;nan;-24263.16;5044921;28;20218;-75
2022/09/09 02:26:44;;;;;;;10.25;6.63;;;;;;;15.98;nan;-24262.59;5040099;28;20242;-75
2022/09/09 02:29:17;;;;;;;9.88;6.60;;;;;;;16.05;nan;-24264.56;5039045;28;20182;-75
2022/09/09 02:31:46;;;;;;;8.88;6.45;;;;;;;15.64;nan;-24253.09;5048143;28;20288;-74
2022/09/09 02:34:13;;;;;;;14.57;6.78;;;;;;;15.97;nan;-24262.31;5038447;28;20883;-75
2022/09/09 02:36:43;;;;;;;11.82;6.00;;;;;;;16.00;nan;-24263.03;5047966;28;20189;-75
2022/09/09 02:39:10;;;;;;;11.93;6.97;;;;;;;15.86;nan;-24259.25;5042949;28;20256;-75
2022/09/09 02:41:39;;;;;;;12.88;6.82;;;;;;;15.93;nan;-24261.06;5047274;28;20178;-75
2022/09/09 02:44:17;;;;;;;9.02;6.03;;;;;;;15.80;nan;-24257.72;5044314;28;20236;-75
2022/09/09 02:47:07;;;;;;;12.00;6.68;;;;;;;15.66;nan;-24253.66;5035746;28;20575;-75
2022/09/09 02:49:41;;;;;;;11.68;6.63;;;;;;;15.47;nan;-24248.63;5034399;28;20266;-75
2022/09/09 02:52:11;;;;;;;11.85;6.18;;;;;;;15.65;nan;-24253.50;5044516;28;20297;-75
2022/09/09 02:54:39;;;;;;;14.15;7.55;;;;;;;15.81;nan;-24257.84;5038530;28;20179;-75
2022/09/09 02:57:19;;;;;;;11.20;6.25;;;;;;;15.72;nan;-24255.34;5045993;28;20189;-74
2022/09/09 02:59:46;;;;;;;9.73;6.68;;;;;;;15.46;nan;-24248.34;5051545;28;20270;-75
2022/09/09 03:02:12;;;;;;;10.88;6.18;;;;;;;15.55;nan;-24250.72;5042712;28;20187;-75
2022/09/09 03:04:38;;;;;;;10.88;6.72;;;;;;;15.70;nan;-24254.91;5051301;28;20178;-75
2022/09/09 03:07:04;;;;;;;8.95;6.18;;;;;;;16.12;nan;-24266.38;5038479;28;20249;-74
2022/09/09 03:09:30;;;;;;;10.32;6.45;;;;;;;16.01;nan;-24263.44;5046847;28;20183;-74
2022/09/09 03:11:56;;;;;;;12.63;6.90;;;;;;;15.86;nan;-24259.38;5045535;28;20183;-75
2022/09/09 03:14:24;;;;;;;12.45;6.95;;;;;;;15.57;nan;-24251.28;5044000;28;20198;-75
2022/09/09 03:16:53;;;;;;;12.43;7.40;;;;;;;15.53;nan;-24250.16;5058129;28;20183;-75
2022/09/09 03:19:20;;;;;;;12.13;6.95;;;;;;;15.69;nan;-24254.63;5040220;28;20183;-75
2022/09/09 03:21:46;;;;;;;11.05;6.82;;;;;;;15.89;nan;-24260.09;5036838;28;20186;-75
2022/09/09 03:24:13;;;;;;;9.73;6.80;;;;;;;15.88;nan;-24259.94;5036940;28;20191;-75
2022/09/09 03:26:40;;;;;;;10.60;6.78;;;;;;;15.74;nan;-24255.91;5034132;28;20704;-75
2022/09/09 03:29:06;;;;;;;15.05;7.63;;;;;;;15.65;nan;-24253.38;5038322;28;20206;-75
2022/09/09 03:31:33;;;;;;;13.25;7.15;;;;;;;15.42;nan;-24247.22;5052908;28;20198;-75
2022/09/09 03:33:58;;;;;;;11.20;6.82;;;;;;;15.87;nan;-24259.53;5037021;28;20183;-75
2022/09/09 03:36:26;;;;;;;11.95;7.32;;;;;;;15.71;nan;-24255.06;5034651;28;20498;-75
2022/09/09 03:38:52;;;;;;;11.43;6.35;;;;;;;15.36;nan;-24245.38;5052140;28;20591;-75
2022/09/09 03:41:18;;;;;;;13.35;6.70;;;;;;;15.71;nan;-24255.06;5036328;28;20190;-75
2022/09/09 03:43:44;;;;;;;11.07;6.53;;;;;;;15.53;nan;-24250.16;5037100;28;20303;-74
2022/09/09 03:46:09;;;;;;;10.73;6.45;;;;;;;15.88;nan;-24259.94;5034669;28;20260;-75
2022/09/09 03:48:35;;;;;;;12.45;6.57;;;;;;;15.27;nan;-24242.88;5036429;28;20598;-75
2022/09/09 03:51:01;;;;;;;11.38;6.82;;;;;;;15.21;nan;-24241.19;5042149;28;20190;-74
2022/09/09 03:53:27;;;;;;;12.23;7.32;;;;;;;15.47;nan;-24248.47;5035707;28;20521;-74
2022/09/09 03:55:54;;;;;;;13.70;6.75;;;;;;;15.27;nan;-24242.88;5034144;28;20277;-75
2022/09/09 03:58:21;;;;;;;9.15;6.20;;;;;;;15.34;nan;-24244.97;5035828;28;20187;-75
2022/09/09 04:00:55;;;;;;;10.55;6.30;;;;;;;15.43;nan;-24247.50;5037214;28;20175;-75
2022/09/09 04:03:22;;;;;;;11.07;7.03;;;;;;;14.99;nan;-24235.31;5042718;28;20200;-76
2022/09/09 04:05:49;;;;;;;13.05;7.53;;;;;;;15.26;nan;-24242.59;5036084;28;20198;-75
2022/09/09 04:08:14;;;;;;;20.63;7.05;;;;;;;14.98;nan;-24234.88;5038123;28;20187;-74
2022/09/09 04:10:39;;;;;;;10.68;6.55;;;;;;;15.37;nan;-24245.66;5035788;28;20204;-74
2022/09/09 04:13:05;;;;;;;14.80;7.15;;;;;;;15.40;nan;-24246.66;5035922;28;20182;-74
2022/09/09 04:15:32;;;;;;;10.77;7.10;;;;;;;15.32;nan;-24244.28;5033413;28;22072;-74
2022/09/09 04:17:57;;;;;;;12.95;7.28;;;;;;;15.29;nan;-24243.44;5035571;28;20309;-75
2022/09/09 04:20:23;;;;;;;12.13;6.57;;;;;;;15.46;nan;-24248.34;5036695;28;20835;-75
2022/09/09 04:22:49;;;;;;;11.35;6.82;;;;;;;15.12;nan;-24238.66;5036078;28;20600;-73
2022/09/09 04:25:14;;;;;;;10.18;7.00;;;;;;;15.69;nan;-24254.50;5038013;28;20226;-73
2022/09/09 04:27:40;;;;;;;13.40;6.97;;;;;;;15.51;nan;-24249.59;5036183;28;20321;-74
2022/09/09 04:30:07;;;;;;;10.18;6.80;;;;;;;15.94;nan;-24261.34;5034379;28;20502;-74
2022/09/09 04:32:36;;;;;;;10.73;7.03;;;;;;;16.17;nan;-24267.78;5038146;28;20336;-74
2022/09/09 04:35:02;;;;;;;8.75;6.53;;;;;;;15.93;nan;-24261.22;5035083;28;20175;-74
2022/09/09 04:37:28;;;;;;;11.20;6.25;;;;;;;16.43;nan;-24275.06;5036604;28;20187;-74
2022/09/09 04:39:54;;;;;;;9.55;5.78;;;;;;;16.59;nan;-24279.41;5038251;28;20237;-74
2022/09/09 04:42:19;;;;;;;10.38;6.22;;;;;;;16.62;nan;-24280.38;5032512;28;20233;-74
2022/09/09 04:44:45;;;;;;;13.30;6.25;;;;;;;16.47;nan;-24276.16;5034786;28;20211;-74
2022/09/09 04:47:10;;;;;;;9.35;6.03;;;;;;;16.56;nan;-24278.69;5034995;28;20198;-75
2022/09/09 04:49:36;;;;;;;11.57;5.95;;;;;;;16.81;nan;-24285.53;5035983;28;20182;-74
2022/09/09 04:52:03;;;;;;;9.98;6.00;;;;;;;16.74;nan;-24283.59;5036737;28;20186;-75
2022/09/09 04:54:29;;;;;;;9.43;5.93;;;;;;;16.90;nan;-24288.06;5034917;28;20182;-73
2022/09/09 04:56:55;;;;;;;7.78;5.65;;;;;;;17.22;nan;-24296.84;5035499;28;20555;-74
2022/09/09 04:59:21;;;;;;;9.05;5.50;;;;;;;17.38;nan;-24301.19;5035293;28;20476;-75
2022/09/09 05:01:47;;;;;;;11.73;6.80;;;;;;;17.15;nan;-24294.91;5035331;28;20689;-75
2022/09/09 05:04:15;;;;;;;9.75;5.93;;;;;;;17.33;nan;-24299.91;5036424;28;20300;-75
2022/09/09 05:06:41;;;;;;;15.80;7.55;;;;;;;17.20;nan;-24296.28;5034074;28;20237;-74
2022/09/09 05:09:07;;;;;;;8.40;6.10;;;;;;;17.61;nan;-24307.75;5036160;28;20174;-75
2022/09/09 05:11:36;;;;;;;9.90;6.38;;;;;;;18.02;nan;-24319.03;5037057;28;20172;-60
2022/09/09 05:14:02;;;;;;;10.80;6.15;;;;;;;17.92;nan;-24316.09;5033243;28;20190;-59
2022/09/09 05:16:28;;;;;;;9.80;6.00;;;;;;;18.36;nan;-24328.38;5037868;28;20277;-60
2022/09/09 05:18:53;;;;;;;8.32;5.60;;;;;;;18.34;nan;-24327.69;5036276;28;20337;-60
2022/09/09 05:21:21;;;;;;;9.95;5.25;;;;;;;18.28;nan;-24326.13;5048475;28;20219;-61
2022/09/09 05:23:46;;;;;;;9.25;5.38;;;;;;;18.17;nan;-24322.94;5041484;28;20684;-61
2022/09/09 05:26:17;;;;;;;11.07;5.85;;;;;;;18.62;nan;-24335.47;5042158;28;20301;-60
2022/09/09 05:28:44;;;;;;;10.93;6.18;;;;;;;18.43;nan;-24330.19;5036402;28;20184;-60
2022/09/09 05:31:13;;;;;;;9.48;5.93;;;;;;;18.85;nan;-24341.88;5032018;28;20780;-60
2022/09/09 05:33:40;;;;;;;10.00;5.97;;;;;;;18.76;nan;-24339.38;5031559;28;20215;-59
2022/09/09 05:36:08;;;;;;;8.20;5.38;;;;;;;18.74;nan;-24338.81;5031587;28;20191;-60
2022/09/09 05:38:35;;;;;;;7.70;5.38;;;;;;;18.60;nan;-24334.78;5031863;28;20172;-61
2022/09/09 05:41:02;;;;;;;7.93;4.80;;;;;;;18.66;nan;-24336.44;5031836;28;20665;-62
2022/09/09 05:43:29;;;;;;;11.10;5.07;;;;;;;18.86;nan;-24342.16;5036426;28;20189;-62
2022/09/09 05:46:04;;;;;;;8.02;5.13;;;;;;;18.64;nan;-24336.03;5035551;28;20191;-62
2022/09/09 05:48:32;;;;;;;8.15;4.53;;;;;;;19.26;nan;-24353.00;5031935;28;20182;-61
2022/09/09 05:50:59;;;;;;;8.15;4.90;;;;;;;18.98;nan;-24345.38;5038950;28;20179;-61
2022/09/09 05:53:25;;;;;;;6.68;4.70;;;;;;;19.24;nan;-24352.47;5037665;28;20233;-60
2022/09/09 05:55:57;;;;;;;9.35;4.82;;;;;;;19.27;nan;-24353.28;5036444;28;20187;-60
2022/09/09 05:58:24;;;;;;;6.78;4.70;;;;;;;19.47;nan;-24358.72;5041430;28;20189;-61
2022/09/09 06:00:50;;;;;;;6.30;4.78;;;;;;;19.87;nan;-24369.72;5040860;28;20654;-61
2022/09/09 06:03:16;;;;;;;11.40;4.50;;;;;;;19.81;nan;-24368.19;5043653;28;20258;-61
2022/09/09 06:05:42;;;;;;;6.95;4.35;;;;;;;19.52;nan;-24360.25;5042207;28;20722;-61
2022/09/09 06:08:07;;;;;;;12.93;4.95;;;;;;;19.86;nan;-24369.56;5040507;28;20186;-61
2022/09/09 06:10:33;;;;;;;7.35;4.93;;;;;;;20.29;nan;-24381.38;5039778;28;20271;-61
2022/09/09 06:12:59;;;;;;;6.68;4.57;;;;;;;20.47;nan;-24386.25;5041600;28;20612;-62
2022/09/09 06:15:26;;;;;;;6.13;3.85;;;;;;;20.24;nan;-24380.00;5038845;28;20685;-61
2022/09/09 06:17:55;;;;;;;8.77;4.28;;;;;;;20.39;nan;-24384.16;5031675;28;20354;-61
2022/09/09 06:20:22;;;;;;;6.18;3.80;;;;;;;20.69;nan;-24392.34;5031739;28;20283;-60
2022/09/09 06:22:48;;;;;;;10.68;5.22;;;;;;;20.59;nan;-24389.72;5031660;28;20182;-60
2022/09/09 06:25:14;;;;;;;7.15;4.45;;;;;;;20.79;nan;-24395.13;5031353;28;20192;-61
2022/09/09 06:27:40;;;;;;;9.27;4.15;;;;;;;20.64;nan;-24391.09;5031608;28;20186;-61
2022/09/09 06:30:07;;;;;;;6.32;3.95;;;;;;;20.91;nan;-24398.31;5031422;28;20256;-61
2022/09/09 06:32:34;;;;;;;9.45;5.20;;;;;;;20.58;nan;-24389.44;5031331;28;20179;-60
2022/09/09 06:35:01;;;;;;;6.38;4.32;;;;;;;20.86;nan;-24396.91;5031671;28;20538;-60
2022/09/09 06:37:27;;;;;;;7.35;4.75;;;;;;;20.87;nan;-24397.19;5031477;28;20171;-61
2022/09/09 06:39:54;;;;;;;6.85;4.18;;;;;;;20.87;nan;-24397.34;5031499;28;20635;-61
2022/09/09 06:42:19;;;;;;;7.38;4.72;;;;;;;21.09;nan;-24403.31;5031296;28;20174;-61
2022/09/09 06:44:45;;;;;;;8.50;4.90;;;;;;;21.12;nan;-24404.28;5031176;28;20554;-60
2022/09/09 06:47:10;;;;;;;6.53;4.63;;;;;;;20.89;nan;-24397.75;5036573;28;20182;-61
2022/09/09 06:49:36;;;;;;;7.35;4.32;;;;;;;20.98;nan;-24400.38;5039479;28;20728;-61
2022/09/09 06:52:01;;;;;;;8.02;4.95;;;;;;;21.47;nan;-24413.69;5039943;28;20175;-61
2022/09/09 06:54:27;;;;;;;7.82;4.60;;;;;;;21.37;nan;-24410.94;5031254;28;20241;-60
2022/09/09 06:56:53;;;;;;;6.90;4.43;;;;;;;21.05;nan;-24402.19;5031043;28;20176;-61
2022/09/09 06:59:18;;;;;;;8.55;4.88;;;;;;;21.20;nan;-24406.22;5037033;28;20175;-61
2022/09/09 07:01:44;;;;;;;6.53;4.70;;;;;;;21.46;nan;-24413.44;5036066;28;20209;-61
2022/09/09 07:04:10;;;;;;;7.22;4.75;;;;;;;21.58;nan;-24416.75;5030822;28;20684;-61
2022/09/09 07:06:45;;;;;;;8.05;4.63;;;;;;;21.93;nan;-24426.44;5031004;28;20207;-61
2022/09/09 07:09:13;;;;;;;6.68;4.30;;;;;;;22.13;nan;-24431.72;5034318;28;20653;-61
2022/09/09 07:11:44;;;;;;;5.53;4.10;;;;;;;22.05;nan;-24429.63;5040069;28;20293;-60
2022/09/09 07:14:13;;;;;;;7.15;4.30;;;;;;;22.19;nan;-24433.38;5040814;28;20207;-61
2022/09/09 07:16:43;;;;;;;9.65;5.03;;;;;;;22.57;nan;-24443.88;5038630;28;20187;-62
2022/09/09 07:19:08;;;;;;;7.78;4.68;;;;;;;22.18;nan;-24433.09;5043624;28;20190;-62
2022/09/09 07:21:34;;;;;;;7.03;4.55;;;;;;;22.38;nan;-24438.63;5034907;28;20752;-62
2022/09/09 07:24:00;;;;;;;6.30;4.20;;;;;;;22.57;nan;-24443.88;5034226;28;20479;-61
2022/09/09 07:26:28;;;;;;;11.48;4.15;;;;;;;22.37;nan;-24438.50;5034020;28;20743;-62
2022/09/09 07:28:55;;;;;;;6.07;3.72;;;;;;;22.70;nan;-24447.34;5034685;28;20163;-61
2022/09/09 07:31:26;;;;;;;6.30;4.15;;;;;;;22.48;nan;-24441.53;5034538;28;20202;-61
2022/09/09 07:33:52;;;;;;;5.63;4.10;;;;;;;22.81;nan;-24450.38;5034761;28;20663;-61
2022/09/09 07:36:21;;;;;;;5.13;3.60;;;;;;;23.06;nan;-24457.31;5034363;28;20247;-62
2022/09/09 07:38:52;;;;;;;5.65;3.75;;;;;;;23.00;nan;-24455.63;5034365;28;20234;-61
2022/09/09 07:41:26;;;;;;;6.15;3.67;;;;;;;22.78;nan;-24449.69;5034542;28;20167;-61
2022/09/09 07:43:56;;;;;;;6.38;3.72;;;;;;;23.42;nan;-24467.09;5034197;28;20606;-61
2022/09/09 07:46:24;;;;;;;5.28;3.58;;;;;;;23.37;nan;-24465.59;5034208;28;20199;-60
2022/09/09 07:48:52;;;;;;;4.93;3.55;;;;;;;23.45;nan;-24467.78;5033715;28;20623;-62
2022/09/09 07:51:26;;;;;;;4.63;3.22;;;;;;;23.75;nan;-24476.22;5044693;28;20518;-62
2022/09/09 07:53:54;;;;;;;7.53;4.20;;;;;;;23.78;nan;-24476.91;5034161;28;20187;-61
2022/09/09 07:56:23;;;;;;;5.13;3.33;;;;;;;24.10;nan;-24485.75;5034006;28;20254;-61
2022/09/09 07:58:49;;;;;;;3.92;2.97;;;;;;;23.92;nan;-24480.78;5036148;28;20270;-62
2022/09/09 08:01:30;;;;;;;4.25;3.08;;;;;;;24.31;nan;-24491.25;5045142;28;20182;-61
2022/09/09 08:04:02;;;;;;;6.63;3.30;;;;;;;24.05;nan;-24484.22;5034321;28;20638;-61
2022/09/09 08:06:29;;;;;;;4.18;2.60;;;;;;;24.33;nan;-24491.81;5033774;28;20218;-60
2022/09/09 08:08:55;;;;;;;5.07;3.25;;;;;;;24.40;nan;-24493.75;5033888;28;20190;-62
2022/09/09 08:11:22;;;;;;;5.07;3.38;;;;;;;24.68;nan;-24501.47;5039878;28;20281;-61
2022/09/09 08:13:50;;;;;;;4.53;3.05;;;;;;;25.04;nan;-24511.38;5037769;28;20609;-61
2022/09/09 08:16:23;;;;;;;4.55;3.38;;;;;;;24.50;nan;-24496.63;5047481;28;20211;-61
2022/09/09 08:18:51;;;;;;;4.85;3.45;;;;;;;24.82;nan;-24505.31;5038037;28;20186;-61
2022/09/09 08:21:24;;;;;;;6.38;3.28;;;;;;;25.05;nan;-24511.66;5044775;28;20289;-61
2022/09/09 08:23:52;;;;;;;4.55;3.22;;;;;;;24.81;nan;-24504.91;5035251;28;20258;-62
2022/09/09 08:26:22;;;;;;;5.72;3.47;;;;;;;25.10;nan;-24512.88;5039947;28;20203;-61
2022/09/09 08:28:49;;;;;;;4.28;3.20;;;;;;;25.33;nan;-24519.22;5042431;28;20713;-61
2022/09/09 08:31:17;;;;;;;5.35;3.63;;;;;;;25.32;nan;-24518.81;5033902;28;20210;-61
2022/09/09 08:33:45;;;;;;;6.40;3.30;;;;;;;25.68;nan;-24528.56;5039216;28;20193;-60
2022/09/09 08:36:16;;;;;;;6.72;2.97;;;;;;;25.95;nan;-24536.00;5034583;28;20282;-61
2022/09/09 08:38:42;;;;;;;4.15;2.95;;;;;;;26.34;nan;-24546.59;5037526;28;20183;-61
2022/09/09 08:41:14;;;;;;;5.18;3.28;;;;;;;25.86;nan;-24533.66;5042935;28;20205;-61
2022/09/09 08:43:42;;;;;;;4.90;3.28;;;;;;;25.99;nan;-24536.97;5033186;28;20179;-61
2022/09/09 08:46:26;;;;;;;5.13;3.60;;;;;;;25.07;nan;-24512.19;5033225;28;20207;-60
2022/09/09 08:49:19;;;;;;;4.43;3.22;;;;;;;24.34;nan;-24492.22;5013424;28;20176;-61
2022/09/09 08:51:44;;;;;;;7.95;3.42;;;;;;;24.67;nan;-24501.03;5012717;28;20192;-62
2022/09/09 08:54:10;;;;;;;5.20;3.63;;;;;;;24.99;nan;-24510.00;5031560;28;20214;-61
2022/09/09 08:56:36;;;;;;;5.53;4.15;;;;;;;25.40;nan;-24521.00;5032749;28;20180;-62
2022/09/09 08:59:05;;;;;;;4.85;3.30;;;;;;;25.79;nan;-24531.59;5037041;28;20689;-61
2022/09/09 09:01:52;;;;;;;4.90;3.33;;;;;;;26.11;nan;-24540.25;5042898;28;20639;-61
2022/09/09 09:04:51;;;;;;;5.22;3.80;;;;;;;26.18;nan;-24542.19;5032537;28;20179;-62
2022/09/09 09:07:28;;;;;;;4.43;3.28;;;;;;;26.24;nan;-24543.84;5045834;28;20194;-62
2022/09/09 09:10:14;;;;;;;7.10;4.00;;;;;;;25.92;nan;-24535.31;5037558;28;20179;-62
2022/09/09 09:12:42;;;;;;;4.35;2.95;;;;;;;25.67;nan;-24528.44;5047729;28;20220;-62
2022/09/09 09:15:18;;;;;;;5.90;3.45;;;;;;;25.80;nan;-24531.88;5042328;28;20184;-62
2022/09/09 09:17:44;;;;;;;4.78;3.63;;;;;;;25.82;nan;-24532.56;5036867;28;20185;-62
2022/09/09 09:20:15;;;;;;;3.63;3.00;;;;;;;25.87;nan;-24533.81;5041794;28;20317;-62
2022/09/09 09:23:02;;;;;;;6.07;3.65;;;;;;;26.19;nan;-24542.59;5041074;28;20560;-63
2022/09/09 09:25:34;;;;;;;5.45;3.83;;;;;;;26.05;nan;-24538.75;5031005;28;20666;-63
2022/09/09 09:28:17;;;;;;;5.45;3.70;;;;;;;26.32;nan;-24546.03;5046553;28;20209;-62
2022/09/09 09:31:01;;;;;;;6.60;4.13;;;;;;;26.86;nan;-24560.59;5037344;28;20172;-61
2022/09/09 09:33:50;;;;;;;4.75;3.33;;;;;;;27.21;nan;-24570.19;5032196;28;20179;-60
2022/09/09 09:36:16;;;;;;;6.00;4.05;;;;;;;27.08;nan;-24566.63;5032115;28;20163;-60
2022/09/09 09:38:59;;;;;;;5.43;3.83;;;;;;;27.36;nan;-24574.16;5031981;28;20227;-61
2022/09/09 09:41:52;;;;;;;4.82;3.60;;;;;;;27.18;nan;-24569.50;5038366;28;20645;-61
2022/09/09 09:44:29;;;;;;;4.53;3.35;;;;;;;26.58;nan;-24553.19;5042510;28;20670;-61
2022/09/09 09:47:21;;;;;;;4.15;3.28;;;;;;;26.66;nan;-24555.22;5031910;28;20290;-61
2022/09/09 09:49:54;;;;;;;4.60;3.63;;;;;;;26.64;nan;-24554.69;5031744;28;20167;-61
2022/09/09 09:52:26;;;;;;;6.03;3.75;;;;;;;26.64;nan;-24554.69;5034000;28;20206;-61
2022/09/09 09:54:53;;;;;;;5.25;3.97;;;;;;;26.23;nan;-24543.69;5040876;28;20179;-61
2022/09/09 09:57:26;;;;;;;6.55;4.32;;;;;;;26.73;nan;-24557.16;5032477;28;20193;-61
2022/09/09 10:00:25;;;;;;;5.57;3.92;;;;;;;27.00;nan;-24564.56;5043616;28;20187;-61
2022/09/09 10:02:52;;;;;;;7.00;4.28;;;;;;;27.21;nan;-24570.19;5042598;28;20724;-62
2022/09/09 10:05:23;;;;;;;5.50;3.97;;;;;;;27.24;nan;-24571.00;5037431;28;20586;-62
2022/09/09 10:08:09;;;;;;;6.47;3.97;;;;;;;27.58;nan;-24580.19;5041080;28;20194;-61
2022/09/09 10:10:41;;;;;;;4.95;3.85;;;;;;;27.69;nan;-24583.22;5053793;28;20186;-62
2022/09/09 10:13:39;;;;;;;4.95;3.70;;;;;;;27.87;nan;-24588.13;5042782;28;20179;-61
2022/09/09 10:16:17;;;;;;;5.20;3.92;;;;;;;27.01;nan;-24564.69;5034292;28;20297;-61
2022/09/09 10:18:54;;;;;;;6.25;4.05;;;;;;;27.01;nan;-24564.69;5036315;28;20538;-61
2022/09/09 10:21:44;;;;;;;6.07;4.43;;;;;;;26.60;nan;-24553.59;5031724;28;20230;-60
2022/09/09 10:24:31;;;;;;;7.75;4.50;;;;;;;27.07;nan;-24566.47;5039683;28;20185;-61
2022/09/09 10:27:12;;;;;;;9.27;4.60;;;;;;;27.20;nan;-24570.06;5038076;28;20218;-62
2022/09/09 10:29:53;;;;;;;6.00;4.07;;;;;;;27.80;nan;-24586.09;5037455;28;20245;-60
2022/09/09 10:32:42;;;;;;;7.20;4.70;;;;;;;27.59;nan;-24580.47;5040402;28;20190;-62
2022/09/09 10:35:26;;;;;;;5.93;3.97;;;;;;;27.20;nan;-24570.06;5036057;28;21252;-61
2022/09/09 10:38:13;;;;;;;5.88;4.47;;;;;;;26.86;nan;-24560.72;5039573;28;20186;-61
2022/09/09 10:40:44;;;;;;;6.68;4.53;;;;;;;26.94;nan;-24562.91;5031570;28;20195;-60
2022/09/09 10:43:27;;;;;;;6.22;4.60;;;;;;;27.02;nan;-24565.13;5045129;28;20175;-61
2022/09/09 10:45:53;;;;;;;6.45;4.70;;;;;;;26.83;nan;-24560.03;5036979;28;20203;-61
2022/09/09 10:48:31;;;;;;;6.07;4.32;;;;;;;26.70;nan;-24556.31;5042297;28;20984;-62
2022/09/09 10:51:26;;;;;;;6.30;4.53;;;;;;;27.07;nan;-24566.47;5031764;28;20210;-62
2022/09/09 10:54:01;;;;;;;6.05;4.35;;;;;;;27.36;nan;-24574.31;5042694;28;20186;-61
2022/09/09 10:56:28;;;;;;;7.05;4.50;;;;;;;27.42;nan;-24575.81;5042439;28;20194;-61
2022/09/09 10:58:59;;;;;;;7.13;4.85;;;;;;;27.78;nan;-24585.53;5040944;28;20265;-62
2022/09/09 11:01:41;;;;;;;7.13;4.95;;;;;;;28.02;nan;-24592.25;5051415;28;20185;-61
2022/09/09 11:04:25;;;;;;;7.35;4.90;;;;;;;28.18;nan;-24596.34;5037534;28;20682;-62
2022/09/09 11:06:55;;;;;;;6.30;4.22;;;;;;;28.40;nan;-24602.50;5044248;28;20203;-61
2022/09/09 11:09:36;;;;;;;6.78;4.50;;;;;;;28.51;nan;-24605.53;5043383;28;20264;-62
2022/09/09 11:12:02;;;;;;;6.38;4.47;;;;;;;28.71;nan;-24610.88;5035206;28;20266;-62
2022/09/09 11:14:51;;;;;;;8.40;4.43;;;;;;;29.04;nan;-24619.59;5035193;28;20669;-61
2022/09/09 11:17:26;;;;;;;8.82;5.30;;;;;;;28.99;nan;-24618.50;5036797;28;20209;-62
2022/09/09 11:19:53;;;;;;;7.65;4.95;;;;;;;29.29;nan;-24626.56;5040780;28;20226;-62
2022/09/09 11:22:38;;;;;;;7.00;4.43;;;;;;;29.23;nan;-24624.78;5035001;28;20205;-61
2022/09/09 11:25:26;;;;;;;8.57;5.10;;;;;;;28.92;nan;-24616.59;5034893;28;20665;-62
2022/09/09 11:28:28;;;;;;;8.15;4.65;;;;;;;29.22;nan;-24624.66;5014979;28;20176;-62
2022/09/09 11:31:12;;;;;;;6.32;4.28;;;;;;;29.10;nan;-24621.25;5016539;28;20179;-61
2022/09/09 11:34:08;;;;;;;6.10;4.35;;;;;;;28.61;nan;-24608.13;5044142;28;20658;-61
2022/09/09 11:37:01;;;;;;;5.68;4.10;;;;;;;28.99;nan;-24618.50;5042669;28;20178;-62
2022/09/09 11:39:29;;;;;;;7.93;4.72;;;;;;;28.27;nan;-24598.81;5017678;28;20198;-62
2022/09/09 11:42:26;;;;;;;5.90;4.38;;;;;;;28.30;nan;-24599.66;5034538;28;20172;-61
2022/09/09 11:44:53;;;;;;;7.35;4.63;;;;;;;28.60;nan;-24607.84;5034186;28;20226;-61
2022/09/09 11:47:29;;;;;;;7.10;4.13;;;;;;;28.90;nan;-24615.91;5034371;28;20189;-61
2022/09/09 11:49:55;;;;;;;6.93;4.30;;;;;;;29.09;nan;-24620.97;5034216;28;20606;-62
2022/09/09 11:52:40;;;;;;;5.88;4.15;;;;;;;29.55;nan;-24633.53;5034356;28;20197;-62
2022/09/09 11:55:25;;;;;;;7.40;4.10;;;;;;;30.04;nan;-24646.63;5034247;28;20190;-62
2022/09/09 11:57:59;;;;;;;5.80;4.03;;;;;;;30.17;nan;-24650.19;5038048;28;20628;-61
2022/09/09 12:00:37;;;;;;;5.50;3.80;;;;;;;30.35;nan;-24655.09;5040541;28;20239;-62
2022/09/09 12:03:04;;;;;;;5.03;3.90;;;;;;;29.95;nan;-24644.19;5044819;28;20637;-61